Time;durP1;ratioP1;P1;durP2;ratioP2;P2;SDS_P1;SDS_P2;PMS_P1;PMS_P2;Temp;Humidity;BMP_temperature;BMP_pressure;BME280_temperature;BME280_humidity;BME280_pressure;Samples;Min_cycle;Max_cycle;Signal;HPM_P1;HPM_P2
2023/07/11 00:00:22;;;;;;;30.60;28.80;;;21.00;99.90;;;;;;5079125;28;20172;-44
2023/07/11 00:02:51;;;;;;;25.73;23.80;;;20.90;99.90;;;;;;5061904;28;20168;-46
2023/07/11 00:05:26;;;;;;;29.33;27.53;;;20.80;99.90;;;;;;5061462;28;20168;-44
2023/07/11 00:07:54;;;;;;;32.13;30.13;;;20.80;99.90;;;;;;5061011;28;20176;-47
2023/07/11 00:10:22;;;;;;;32.27;30.37;;;20.80;99.90;;;;;;5077731;28;20256;-48
2023/07/11 00:12:51;;;;;;;40.30;37.90;;;20.80;99.90;;;;;;5060582;28;20585;-44
2023/07/11 00:15:19;;;;;;;44.30;41.73;;;20.80;99.90;;;;;;5077815;28;20276;-46
2023/07/11 00:17:49;;;;;;;45.97;43.27;;;20.80;99.90;;;;;;5078955;28;20417;-43
2023/07/11 00:20:18;;;;;;;42.53;40.23;;;20.80;99.90;;;;;;5058813;28;20176;-44
2023/07/11 00:22:48;;;;;;;44.27;41.87;;;20.70;99.90;;;;;;5061094;28;20211;-45
2023/07/11 00:25:16;;;;;;;52.00;48.57;;;20.60;99.90;;;;;;5061248;28;20172;-46
2023/07/11 00:27:44;;;;;;;52.97;49.60;;;20.50;99.90;;;;;;5060508;28;20173;-44
2023/07/11 00:30:12;;;;;;;54.63;51.60;;;20.50;99.90;;;;;;5060262;28;20173;-44
2023/07/11 00:32:40;;;;;;;56.00;52.67;;;20.50;99.90;;;;;;5061534;28;20169;-44
2023/07/11 00:35:09;;;;;;;58.67;55.30;;;20.50;99.90;;;;;;5078202;28;20256;-44
2023/07/11 00:37:38;;;;;;;62.80;59.50;;;20.40;99.90;;;;;;5060214;28;20665;-44
2023/07/11 00:40:07;;;;;;;63.70;60.30;;;20.10;99.90;;;;;;5060214;28;20179;-47
2023/07/11 00:42:36;;;;;;;29.67;27.80;;;20.10;99.90;;;;;;5060335;28;20763;-45
2023/07/11 00:45:04;;;;;;;16.77;15.40;;;20.20;99.90;;;;;;5059783;28;20340;-45
2023/07/11 00:47:33;;;;;;;16.80;15.50;;;20.20;99.90;;;;;;5076896;28;20793;-45
2023/07/11 00:50:06;;;;;;;19.40;18.20;;;20.20;99.90;;;;;;5060074;28;20603;-44
2023/07/11 00:52:34;;;;;;;12.97;11.87;;;20.10;99.90;;;;;;5076979;28;20173;-43
2023/07/11 00:55:05;;;;;;;13.07;12.17;;;20.10;99.90;;;;;;5059264;28;20492;-44
2023/07/11 00:57:34;;;;;;;13.37;12.07;;;20.10;99.90;;;;;;5058731;28;20246;-45
2023/07/11 01:00:04;;;;;;;11.17;10.23;;;20.10;99.90;;;;;;5077061;28;20309;-44
2023/07/11 01:02:32;;;;;;;17.13;15.77;;;20.20;99.90;;;;;;5060066;28;20468;-49
2023/07/11 01:04:59;;;;;;;18.10;16.80;;;20.30;99.90;;;;;;5077418;28;20176;-43
2023/07/11 01:07:29;;;;;;;18.10;16.63;;;20.40;99.90;;;;;;5060744;28;20177;-46
2023/07/11 01:09:55;;;;;;;18.73;17.60;;;20.40;99.90;;;;;;5060839;28;20540;-46
2023/07/11 01:12:21;;;;;;;23.53;21.97;;;20.40;99.90;;;;;;5059610;28;20169;-45
2023/07/11 01:14:49;;;;;;;26.70;24.90;;;20.40;99.90;;;;;;5060584;28;20187;-45
2023/07/11 01:17:42;;;;;;;23.70;22.20;;;20.40;99.90;;;;;;5077387;28;20245;-47
2023/07/11 01:20:09;;;;;;;20.97;19.37;;;20.40;99.90;;;;;;5057006;28;20176;-47
2023/07/11 01:22:38;;;;;;;29.23;27.13;;;20.40;99.90;;;;;;5077700;28;20165;-51
2023/07/11 01:25:13;;;;;;;25.17;23.53;;;20.40;99.90;;;;;;5060105;28;20200;-43
2023/07/11 01:27:40;;;;;;;21.33;19.57;;;20.30;99.90;;;;;;5060179;28;20528;-43
2023/07/11 01:30:09;;;;;;;15.97;14.33;;;20.20;99.90;;;;;;5060027;28;20208;-44
2023/07/11 01:32:35;;;;;;;11.83;11.00;;;20.20;99.90;;;;;;5060123;28;20175;-47
2023/07/11 01:35:01;;;;;;;8.13;7.43;;;20.20;99.90;;;;;;5045478;28;20217;-49
2023/07/11 01:37:27;;;;;;;12.73;10.50;;;20.20;99.90;;;;;;5057818;28;20227;-44
2023/07/11 01:39:52;;;;;;;11.50;10.63;;;20.20;99.90;;;;;;5057586;28;20166;-43
2023/07/11 01:42:18;;;;;;;11.30;9.53;;;20.30;99.90;;;;;;5040422;28;20176;-47
2023/07/11 01:44:44;;;;;;;9.67;8.67;;;20.30;99.90;;;;;;5057748;28;20523;-43
2023/07/11 01:47:10;;;;;;;10.83;7.57;;;20.30;99.90;;;;;;5057499;28;20344;-50
2023/07/11 01:49:35;;;;;;;9.60;8.90;;;20.20;99.90;;;;;;5040555;28;20165;-44
2023/07/11 01:52:11;;;;;;;9.60;8.80;;;20.20;99.90;;;;;;5041533;28;20224;-45
2023/07/11 01:54:37;;;;;;;10.30;9.43;;;20.30;99.90;;;;;;5040769;28;20506;-44
2023/07/11 01:57:03;;;;;;;14.00;12.77;;;20.30;99.90;;;;;;5040530;28;20637;-45
2023/07/11 01:59:28;;;;;;;14.13;13.23;;;20.30;99.90;;;;;;5039856;28;20180;-44
2023/07/11 02:01:54;;;;;;;13.37;12.27;;;20.30;99.90;;;;;;5039428;28;20172;-44
2023/07/11 02:04:23;;;;;;;12.23;11.03;;;20.30;99.90;;;;;;5040108;28;20191;-43
2023/07/11 02:06:50;;;;;;;10.10;9.30;;;20.20;99.90;;;;;;5039490;28;20177;-46
2023/07/11 02:09:18;;;;;;;12.17;11.10;;;20.30;99.90;;;;;;5039687;28;20180;-44
2023/07/11 02:11:44;;;;;;;13.27;12.17;;;20.20;99.90;;;;;;5039388;28;20176;-45
2023/07/11 02:14:13;;;;;;;12.63;11.73;;;20.20;99.90;;;;;;5056278;28;20166;-44
2023/07/11 02:16:39;;;;;;;12.90;11.93;;;20.20;99.90;;;;;;5039088;28;20706;-43
2023/07/11 02:19:05;;;;;;;14.97;13.97;;;20.10;99.90;;;;;;5056436;28;20568;-44
2023/07/11 02:21:30;;;;;;;13.87;12.67;;;20.10;99.90;;;;;;5055935;28;20268;-44
2023/07/11 02:23:56;;;;;;;13.47;12.47;;;20.10;99.90;;;;;;5058402;28;20158;-50
2023/07/11 02:26:25;;;;;;;14.47;13.47;;;20.10;99.90;;;;;;5044378;28;20580;-45
2023/07/11 02:28:50;;;;;;;14.87;13.60;;;20.00;99.90;;;;;;5043956;28;20452;-45
2023/07/11 02:31:16;;;;;;;13.07;11.97;;;20.00;99.90;;;;;;5061603;28;20177;-45
2023/07/11 02:33:42;;;;;;;11.23;10.40;;;19.90;99.90;;;;;;5043791;28;20221;-46
2023/07/11 02:36:07;;;;;;;13.20;12.37;;;19.90;99.90;;;;;;5062046;28;20206;-44
2023/07/11 02:38:33;;;;;;;13.20;12.33;;;20.00;99.90;;;;;;5045015;28;20173;-45
2023/07/11 02:40:58;;;;;;;16.03;14.77;;;20.00;99.90;;;;;;5044035;28;20177;-45
2023/07/11 02:43:24;;;;;;;13.23;12.17;;;20.00;99.90;;;;;;5061034;28;20223;-46
2023/07/11 02:45:50;;;;;;;14.53;13.40;;;20.00;99.90;;;;;;5043944;28;20284;-45
2023/07/11 02:48:16;;;;;;;12.60;11.67;;;19.90;99.90;;;;;;5061005;28;20169;-43
2023/07/11 02:50:41;;;;;;;14.60;13.57;;;19.90;99.90;;;;;;5043155;28;20185;-46
2023/07/11 02:53:07;;;;;;;14.87;13.77;;;19.90;99.90;;;;;;5060019;28;20196;-44
2023/07/11 02:55:37;;;;;;;12.90;11.97;;;19.90;99.90;;;;;;5042984;28;20201;-44
2023/07/11 02:58:02;;;;;;;12.47;11.47;;;19.80;99.90;;;;;;5043389;28;20166;-44
2023/07/11 03:00:28;;;;;;;12.00;11.03;;;19.80;99.90;;;;;;5042880;28;20169;-44
2023/07/11 03:02:54;;;;;;;12.80;11.60;;;19.90;99.90;;;;;;5043548;28;20165;-48
2023/07/11 03:08:42;;;;;;;11.90;10.33;;;19.80;99.90;;;;;;5061161;28;20180;-47
2023/07/11 03:11:11;;;;;;;11.83;10.73;;;19.80;99.90;;;;;;5043977;28;20173;-44
2023/07/11 03:13:36;;;;;;;12.07;11.03;;;19.80;99.90;;;;;;5043695;28;20268;-43
2023/07/11 03:16:05;;;;;;;10.73;9.87;;;19.80;99.90;;;;;;5043522;28;20291;-44
2023/07/11 03:18:31;;;;;;;11.67;10.47;;;19.80;99.90;;;;;;5043556;28;20166;-50
2023/07/11 03:20:58;;;;;;;12.73;11.63;;;19.80;99.90;;;;;;5043684;28;20272;-46
2023/07/11 03:23:24;;;;;;;10.40;9.47;;;19.80;99.90;;;;;;5043890;28;20168;-45
2023/07/11 03:25:49;;;;;;;12.47;11.57;;;19.70;99.90;;;;;;5042880;28;20169;-46
2023/07/11 03:28:15;;;;;;;11.93;10.93;;;19.70;99.90;;;;;;5042555;28;20553;-44
2023/07/11 03:30:42;;;;;;;13.63;12.63;;;19.70;99.90;;;;;;5042574;28;20606;-44
2023/07/11 03:33:07;;;;;;;14.57;13.57;;;19.70;99.90;;;;;;5041921;28;20174;-44
2023/07/11 03:35:33;;;;;;;11.67;10.90;;;19.70;99.90;;;;;;5077376;28;20274;-45
2023/07/11 03:37:59;;;;;;;10.43;9.43;;;19.60;99.90;;;;;;5079209;28;20180;-45
2023/07/11 03:40:25;;;;;;;11.03;10.10;;;19.60;99.90;;;;;;5062103;28;20208;-45
2023/07/11 03:42:50;;;;;;;10.73;9.93;;;19.70;99.90;;;;;;5062763;28;20181;-45
2023/07/11 03:45:16;;;;;;;11.33;10.23;;;19.70;99.90;;;;;;5079797;28;20173;-44
2023/07/11 03:47:42;;;;;;;10.30;9.47;;;19.70;99.90;;;;;;5062186;28;20169;-48
2023/07/11 03:50:08;;;;;;;10.43;9.43;;;19.60;99.90;;;;;;5061896;28;20515;-45
2023/07/11 03:52:34;;;;;;;12.03;10.00;;;19.60;99.90;;;;;;5061710;28;20169;-45
2023/07/11 03:54:59;;;;;;;9.77;8.97;;;19.70;99.90;;;;;;5062234;28;20196;-45
2023/07/11 03:57:25;;;;;;;11.30;8.53;;;19.60;99.90;;;;;;5061662;28;20264;-44
2023/07/11 03:59:51;;;;;;;12.90;8.33;;;19.70;99.90;;;;;;5061341;28;20176;-45
2023/07/11 04:02:17;;;;;;;10.30;9.30;;;19.70;99.90;;;;;;5045080;28;20195;-45
2023/07/11 04:04:42;;;;;;;10.73;9.67;;;19.70;99.90;;;;;;5061314;28;20169;-45
2023/07/11 04:07:08;;;;;;;12.67;11.63;;;19.80;99.90;;;;;;5078688;28;20206;-44
2023/07/11 04:09:34;;;;;;;11.73;10.57;;;19.80;99.90;;;;;;5078209;28;20438;-47
2023/07/11 04:11:59;;;;;;;9.37;8.53;;;19.90;99.90;;;;;;5060648;28;20176;-44
2023/07/11 04:14:25;;;;;;;10.33;9.43;;;19.90;99.90;;;;;;5061976;28;20238;-44
2023/07/11 04:16:50;;;;;;;9.83;8.93;;;19.90;99.90;;;;;;5079507;28;20188;-46
2023/07/11 04:19:18;;;;;;;10.70;9.70;;;19.90;99.90;;;;;;5060697;28;20264;-44
2023/07/11 04:21:44;;;;;;;13.13;12.13;;;19.90;99.90;;;;;;5060648;28;20165;-47
2023/07/11 04:24:09;;;;;;;19.60;18.07;;;19.80;99.90;;;;;;5060657;28;20204;-45
2023/07/11 04:26:35;;;;;;;14.47;13.20;;;19.90;99.90;;;;;;5060616;28;20187;-44
2023/07/11 04:29:00;;;;;;;11.97;11.13;;;19.90;99.90;;;;;;5059438;28;20177;-45
2023/07/11 04:31:27;;;;;;;10.30;9.47;;;19.90;99.90;;;;;;5077463;28;20266;-44
2023/07/11 04:33:52;;;;;;;11.70;10.90;;;19.90;99.90;;;;;;5076538;28;20624;-44
2023/07/11 04:36:18;;;;;;;12.20;11.40;;;19.90;99.90;;;;;;5059975;28;20200;-46
2023/07/11 04:38:45;;;;;;;13.60;12.67;;;19.90;99.90;;;;;;5060946;28;20172;-47
2023/07/11 04:41:11;;;;;;;14.57;13.27;;;20.00;99.90;;;;;;5060523;28;20638;-45
2023/07/11 04:43:37;;;;;;;17.30;16.10;;;20.00;99.90;;;;;;5060619;28;20285;-46
2023/07/11 04:46:04;;;;;;;28.67;27.07;;;19.90;99.90;;;;;;5077779;28;20536;-44
2023/07/11 04:48:31;;;;;;;38.90;36.47;;;19.90;99.90;;;;;;5059052;28;20564;-44
2023/07/11 04:51:03;;;;;;;32.23;30.27;;;19.90;99.90;;;;;;5059143;28;20341;-45
2023/07/11 04:53:29;;;;;;;22.80;21.47;;;19.90;99.90;;;;;;5076226;28;20149;-44
2023/07/11 04:56:00;;;;;;;22.73;21.00;;;20.00;99.90;;;;;;5058940;28;20295;-47
2023/07/11 04:58:28;;;;;;;18.27;16.97;;;19.90;99.90;;;;;;5075533;28;20487;-43
2023/07/11 05:00:59;;;;;;;19.00;17.53;;;19.90;99.90;;;;;;5056951;28;20736;-44
2023/07/11 05:03:25;;;;;;;17.23;16.07;;;19.90;99.90;;;;;;5074946;28;20181;-47
2023/07/11 05:05:50;;;;;;;16.40;14.87;;;20.00;99.90;;;;;;5076357;28;20313;-44
2023/07/11 05:08:16;;;;;;;19.87;17.83;;;20.00;99.90;;;;;;5058867;28;20169;-45
2023/07/11 05:10:51;;;;;;;18.90;17.73;;;20.00;99.90;;;;;;5058161;28;20173;-45
2023/07/11 05:13:17;;;;;;;20.07;18.67;;;20.00;99.90;;;;;;5058458;28;20288;-43
2023/07/11 05:15:43;;;;;;;22.70;21.00;;;20.10;99.90;;;;;;5058340;28;20596;-46
2023/07/11 05:18:09;;;;;;;20.20;18.80;;;20.10;99.90;;;;;;5058440;28;20520;-47
2023/07/11 05:20:34;;;;;;;22.47;20.80;;;20.00;99.90;;;;;;5057553;28;20165;-44
2023/07/11 05:23:00;;;;;;;27.97;25.97;;;20.10;99.90;;;;;;5074134;28;20240;-44
2023/07/11 05:25:25;;;;;;;27.57;25.93;;;20.00;99.90;;;;;;5057251;28;20265;-45
2023/07/11 05:27:51;;;;;;;27.10;25.20;;;20.10;99.90;;;;;;5057914;28;20471;-46
2023/07/11 05:30:16;;;;;;;48.00;45.23;;;20.10;99.90;;;;;;5057967;28;20180;-44
2023/07/11 05:32:42;;;;;;;49.53;46.37;;;20.10;99.90;;;;;;5057408;28;20211;-44
2023/07/11 05:35:07;;;;;;;55.87;52.80;;;20.20;99.90;;;;;;5057237;28;20278;-46
2023/07/11 05:37:33;;;;;;;76.57;72.30;;;20.20;99.90;;;;;;5057870;28;20180;-46
2023/07/11 05:39:58;;;;;;;78.77;74.60;;;20.30;99.90;;;;;;5075792;28;20229;-45
2023/07/11 05:42:24;;;;;;;84.10;79.77;;;20.20;99.90;;;;;;5057093;28;20164;-46
2023/07/11 05:44:50;;;;;;;60.43;56.80;;;20.30;99.90;;;;;;5051756;28;20391;-44
2023/07/11 05:47:15;;;;;;;57.63;53.80;;;20.30;99.90;;;;;;5050513;28;20284;-46
2023/07/11 05:49:41;;;;;;;38.37;35.47;;;20.40;99.90;;;;;;5067358;28;20222;-47
2023/07/11 05:52:06;;;;;;;27.53;26.00;;;20.40;99.90;;;;;;5049806;28;20165;-45
2023/07/11 05:54:32;;;;;;;27.77;25.87;;;20.40;99.90;;;;;;5048580;28;20249;-44
2023/07/11 05:56:57;;;;;;;31.63;29.73;;;20.40;99.90;;;;;;5050265;28;20276;-44
2023/07/11 05:59:23;;;;;;;41.53;38.97;;;20.50;99.90;;;;;;5068706;28;20189;-44
2023/07/11 06:01:49;;;;;;;34.83;32.70;;;20.50;99.90;;;;;;5050074;28;20593;-46
2023/07/11 06:04:18;;;;;;;27.00;25.03;;;20.50;99.90;;;;;;5050000;28;20172;-45
2023/07/11 06:06:44;;;;;;;18.87;17.50;;;20.60;99.90;;;;;;5049511;28;20249;-46
2023/07/11 06:09:15;;;;;;;14.07;12.93;;;20.60;99.90;;;;;;5065983;28;20259;-46
2023/07/11 06:11:41;;;;;;;21.40;19.77;;;20.60;99.90;;;;;;5066394;28;20759;-44
2023/07/11 06:14:09;;;;;;;22.47;20.87;;;20.70;99.90;;;;;;5064587;28;20169;-45
2023/07/11 06:16:35;;;;;;;24.33;22.63;;;20.70;99.90;;;;;;5045508;28;20589;-44
2023/07/11 06:19:01;;;;;;;20.00;18.87;;;20.80;99.90;;;;;;5047067;28;20222;-45
2023/07/11 06:21:26;;;;;;;24.20;22.50;;;20.80;99.90;;;;;;5052562;28;20238;-44
2023/07/11 06:23:52;;;;;;;17.27;15.93;;;20.80;99.90;;;;;;5053046;28;20222;-44
2023/07/11 06:26:18;;;;;;;16.13;15.07;;;20.90;99.90;;;;;;5053214;28;20195;-44
2023/07/11 06:28:44;;;;;;;17.20;15.90;;;20.90;99.90;;;;;;5053749;28;20563;-44
2023/07/11 06:31:11;;;;;;;15.00;14.10;;;20.90;99.90;;;;;;5072346;28;20259;-44
2023/07/11 06:33:37;;;;;;;18.87;17.47;;;21.00;99.90;;;;;;5055098;28;20780;-44
2023/07/11 06:36:04;;;;;;;22.07;20.17;;;21.00;99.90;;;;;;5055380;28;20270;-45
2023/07/11 06:38:30;;;;;;;25.63;23.93;;;21.10;99.90;;;;;;5055840;28;20737;-44
2023/07/11 06:40:56;;;;;;;20.03;18.60;;;21.10;99.90;;;;;;5056095;28;20168;-46
2023/07/11 06:43:24;;;;;;;17.97;16.83;;;21.20;99.90;;;;;;5073189;28;20196;-43
2023/07/11 06:45:55;;;;;;;7.40;6.60;;;21.20;99.90;;;;;;5073180;28;20169;-44
2023/07/11 06:48:23;;;;;;;8.97;4.07;;;21.30;99.90;;;;;;5055129;28;20169;-44
2023/07/11 06:50:53;;;;;;;4.57;4.17;;;21.30;99.90;;;;;;5054463;28;20484;-44
2023/07/11 06:53:19;;;;;;;8.10;3.57;;;21.30;99.90;;;;;;5056032;28;20574;-44
2023/07/11 06:55:50;;;;;;;3.60;3.30;;;21.30;99.90;;;;;;5057474;28;20200;-45
2023/07/11 06:58:16;;;;;;;4.63;3.73;;;21.40;99.90;;;;;;5056440;28;20172;-49
2023/07/11 07:00:42;;;;;;;5.57;3.07;;;21.40;99.90;;;;;;5056901;28;20175;-44
2023/07/11 07:03:12;;;;;;;6.90;3.30;;;21.40;99.90;;;;;;5072328;28;20167;-47
2023/07/11 07:05:46;;;;;;;4.00;3.03;;;21.50;99.90;;;;;;5054733;28;20169;-46
2023/07/11 07:08:12;;;;;;;2.77;2.40;;;21.50;99.90;;;;;;5072124;28;20169;-48
2023/07/11 07:10:38;;;;;;;5.33;3.13;;;21.60;99.90;;;;;;5054147;28;20176;-44
2023/07/11 07:13:03;;;;;;;3.07;2.50;;;21.60;99.90;;;;;;5075256;28;20472;-43
2023/07/11 07:15:29;;;;;;;6.03;3.37;;;21.70;99.90;;;;;;5056913;28;20811;-44
2023/07/11 07:17:54;;;;;;;4.10;3.80;;;21.70;99.90;;;;;;5058600;28;20211;-44
2023/07/11 07:20:20;;;;;;;6.33;3.10;;;21.80;99.90;;;;;;5057399;28;20184;-44
2023/07/11 07:22:45;;;;;;;5.53;2.77;;;21.80;99.90;;;;;;5057530;28;20442;-44
2023/07/11 07:25:11;;;;;;;7.67;3.10;;;21.80;99.90;;;;;;5056709;28;20271;-44
2023/07/11 07:27:36;;;;;;;4.10;2.77;;;21.90;99.90;;;;;;5057286;28;20215;-44
2023/07/11 07:30:03;;;;;;;5.00;2.57;;;21.90;99.90;;;;;;5075913;28;20180;-44
2023/07/11 07:32:29;;;;;;;3.37;2.40;;;22.00;99.90;;;;;;5057384;28;20622;-44
2023/07/11 07:34:55;;;;;;;4.90;2.90;;;22.00;99.90;;;;;;5044467;28;20668;-45
2023/07/11 07:37:20;;;;;;;5.47;2.50;;;22.10;99.90;;;;;;5039066;28;20188;-45
2023/07/11 07:39:46;;;;;;;4.20;2.60;;;22.10;99.90;;;;;;5038740;28;20226;-44
2023/07/11 07:42:11;;;;;;;5.30;2.30;;;22.10;99.90;;;;;;5039363;28;20173;-47
2023/07/11 07:44:37;;;;;;;3.40;2.00;;;22.20;99.90;;;;;;5040403;28;20708;-45
2023/07/11 07:47:02;;;;;;;3.77;2.40;;;22.20;99.90;;;;;;5057230;28;20557;-44
2023/07/11 07:49:28;;;;;;;3.83;2.20;;;22.30;99.90;;;;;;5038500;28;20459;-46
2023/07/11 07:51:54;;;;;;;5.30;2.37;;;22.40;99.90;;;;;;5038337;28;20169;-46
2023/07/11 07:54:26;;;;;;;4.17;2.00;;;22.40;99.90;;;;;;5055743;28;20242;-52
2023/07/11 07:56:53;;;;;;;5.50;2.50;;;22.40;99.90;;;;;;5055251;28;20197;-45
2023/07/11 07:59:19;;;;;;;4.80;2.30;;;22.50;99.90;;;;;;5037844;28;20177;-43
2023/07/11 08:01:45;;;;;;;8.07;3.03;;;22.50;99.90;;;;;;5037336;28;20173;-44
2023/07/11 08:04:10;;;;;;;3.43;2.50;;;22.60;99.90;;;;;;5038003;28;20173;-46
2023/07/11 08:06:36;;;;;;;4.40;2.67;;;22.70;99.90;;;;;;5037755;28;20285;-43
2023/07/11 08:09:02;;;;;;;5.00;3.67;;;22.70;99.90;;;;;;5037782;28;20185;-46
2023/07/11 08:11:27;;;;;;;3.63;3.33;;;22.70;99.90;;;;;;5035788;28;20169;-43
2023/07/11 08:13:54;;;;;;;4.33;3.50;;;22.80;99.90;;;;;;5034377;28;20192;-44
2023/07/11 08:16:20;;;;;;;5.20;4.13;;;22.90;99.90;;;;;;5031641;28;20201;-44
2023/07/11 08:18:46;;;;;;;4.90;4.00;;;22.90;99.90;;;;;;5049122;28;20431;-44
2023/07/11 08:21:12;;;;;;;9.40;8.53;;;23.00;99.90;;;;;;5035419;28;20426;-44
2023/07/11 08:23:38;;;;;;;8.00;7.40;;;23.00;99.90;;;;;;5036182;28;20174;-43
2023/07/11 08:26:03;;;;;;;8.87;8.30;;;23.10;99.90;;;;;;5054749;28;20181;-46
2023/07/11 08:28:29;;;;;;;6.47;4.97;;;23.10;99.90;;;;;;5038117;28;20793;-44
2023/07/11 08:30:55;;;;;;;5.83;5.33;;;23.20;99.90;;;;;;5036785;28;20184;-44
2023/07/11 08:33:21;;;;;;;7.43;5.40;;;23.30;99.90;;;;;;5036665;28;20746;-45
2023/07/11 08:35:47;;;;;;;7.00;4.87;;;23.30;99.90;;;;;;5055187;28;20312;-44
2023/07/11 08:38:13;;;;;;;6.90;6.40;;;23.40;99.90;;;;;;5055862;28;20169;-44
2023/07/11 08:40:45;;;;;;;7.13;6.53;;;23.40;99.90;;;;;;5055699;28;20167;-44
2023/07/11 08:43:19;;;;;;;6.53;5.97;;;23.40;99.90;;;;;;5055786;28;20161;-44
2023/07/11 08:46:01;;;;;;;8.13;3.87;;;23.50;99.90;;;;;;5075221;28;20183;-46
2023/07/11 08:48:41;;;;;;;3.93;3.53;;;23.50;99.90;;;;;;5074997;28;20171;-46
2023/07/11 08:51:16;;;;;;;6.90;3.57;;;23.60;99.90;;;;;;5058247;28;20228;-44
2023/07/11 08:53:48;;;;;;;5.97;3.37;;;23.70;99.90;;;;;;5074547;28;20206;-45
2023/07/11 08:56:21;;;;;;;4.80;4.40;;;23.70;99.90;;;;;;5057444;28;20217;-46
2023/07/11 08:58:49;;;;;;;5.57;2.73;;;23.90;99.90;;;;;;5050178;28;20302;-44
2023/07/11 09:01:38;;;;;;;3.77;2.70;;;23.90;99.90;;;;;;5037313;28;20162;-43
2023/07/11 09:04:04;;;;;;;3.90;2.83;;;23.90;99.90;;;;;;5036736;28;20465;-44
2023/07/11 09:06:40;;;;;;;3.63;2.40;;;23.90;99.90;;;;;;5054579;28;20568;-46
2023/07/11 09:09:10;;;;;;;5.50;2.40;;;24.00;99.90;;;;;;5053777;28;20166;-44
2023/07/11 09:12:02;;;;;;;4.03;2.67;;;24.00;99.90;;;;;;5035894;28;20173;-46
2023/07/11 09:15:23;;;;;;;2.60;2.40;;;24.00;99.90;;;;;;5052446;28;20723;-43
2023/07/11 09:18:02;;;;;;;4.70;2.67;;;24.10;99.90;;;;;;4936985;29;20272;-46
2023/07/11 09:20:28;;;;;;;4.60;2.20;;;24.20;99.90;;;;;;4944411;28;20262;-44
2023/07/11 09:23:24;;;;;;;3.57;2.33;;;24.20;99.90;;;;;;4957685;28;20474;-45
2023/07/11 09:25:51;;;;;;;3.93;2.30;;;24.30;99.90;;;;;;4957080;28;20172;-44
2023/07/11 09:28:23;;;;;;;5.30;2.30;;;24.40;99.90;;;;;;4991064;28;20599;-43
2023/07/11 09:30:57;;;;;;;2.33;2.13;;;24.50;99.90;;;;;;5094180;28;20184;-45
2023/07/11 09:33:40;;;;;;;4.33;2.40;;;24.40;99.90;;;;;;5077301;28;20160;-44
2023/07/11 09:36:37;;;;;;;7.60;3.10;;;24.50;99.90;;;;;;5077488;28;20192;-44
2023/07/11 09:39:34;;;;;;;2.97;2.47;;;24.60;99.90;;;;;;5073919;28;20172;-44
2023/07/11 09:42:34;;;;;;;5.80;3.23;;;24.60;99.90;;;;;;5094700;28;20221;-44
2023/07/11 09:45:09;;;;;;;3.50;3.10;;;24.60;99.90;;;;;;5076153;28;20749;-44
2023/07/11 09:47:38;;;;;;;4.97;3.17;;;24.70;99.90;;;;;;5075782;28;20312;-45
2023/07/11 09:50:36;;;;;;;4.43;3.83;;;24.80;99.90;;;;;;5075081;28;20172;-48
2023/07/11 09:53:07;;;;;;;6.50;3.40;;;24.80;99.90;;;;;;5092713;28;20184;-44
2023/07/11 09:55:36;;;;;;;4.00;3.63;;;24.80;99.90;;;;;;5075346;28;20195;-46
2023/07/11 09:58:02;;;;;;;6.15;3.88;;;24.90;99.90;;;;;;5075482;28;20168;-45
2023/07/11 10:00:29;;;;;;;5.13;4.63;;;25.00;99.90;;;;;;5076155;28;20171;-44
2023/07/11 10:02:59;;;;;;;7.97;4.97;;;25.00;99.90;;;;;;5059845;28;20168;-44
2023/07/11 10:05:25;;;;;;;8.10;7.47;;;25.20;99.90;;;;;;5075720;28;20544;-45
2023/07/11 10:08:05;;;;;;;5.53;4.85;;;25.20;99.90;;;;;;5075569;28;20175;-44
2023/07/11 10:10:31;;;;;;;24.73;23.43;;;25.30;99.90;;;;;;5091969;28;20374;-43
2023/07/11 10:13:09;;;;;;;33.42;31.67;;;25.30;99.90;;;;;;5086984;28;20221;-44
2023/07/11 10:15:35;;;;;;;72.43;68.73;;;25.40;99.90;;;;;;5068025;28;20203;-46
2023/07/11 10:18:01;;;;;;;73.50;69.68;;;25.60;99.90;;;;;;5068962;28;20559;-43
2023/07/11 10:20:26;;;;;;;72.43;68.65;;;25.60;99.90;;;;;;5072835;28;20174;-45
2023/07/11 10:23:00;;;;;;;57.33;54.07;;;25.70;99.90;;;;;;5076659;28;20172;-44
2023/07/11 10:25:27;;;;;;;56.05;52.97;;;25.70;99.90;;;;;;5093057;28;20191;-45
2023/07/11 10:28:08;;;;;;;76.72;72.43;;;25.70;99.90;;;;;;5074243;28;20187;-46
2023/07/11 10:30:37;;;;;;;90.38;85.78;;;25.80;99.90;;;;;;5073169;28;20202;-44
2023/07/11 10:33:18;;;;;;;87.75;83.18;;;25.80;99.90;;;;;;5074570;28;20221;-45
2023/07/11 10:35:45;;;;;;;82.30;77.82;;;25.80;99.90;;;;;;5073315;28;20212;-44
2023/07/11 10:38:20;;;;;;;89.20;84.38;;;25.80;99.90;;;;;;5089508;28;20686;-44
2023/07/11 10:40:50;;;;;;;54.22;51.15;;;25.80;99.90;;;;;;5074034;28;20167;-44
2023/07/11 10:43:44;;;;;;;64.50;61.05;;;25.90;99.90;;;;;;5074245;28;20236;-45
2023/07/11 10:46:20;;;;;;;68.77;65.10;;;26.00;99.90;;;;;;5077740;28;20172;-44
2023/07/11 10:48:50;;;;;;;50.73;47.97;;;26.00;99.90;;;;;;5077088;28;20167;-45
2023/07/11 10:51:31;;;;;;;60.22;56.95;;;26.00;99.90;;;;;;5076858;28;20176;-44
2023/07/11 10:54:11;;;;;;;56.25;53.30;;;26.10;99.90;;;;;;5076736;28;20749;-45
2023/07/11 10:56:41;;;;;;;61.13;57.60;;;26.20;99.90;;;;;;5093748;28;20533;-44
2023/07/11 10:59:12;;;;;;;27.50;25.92;;;26.20;99.90;;;;;;5077265;28;20174;-46
2023/07/11 11:01:57;;;;;;;36.60;34.65;;;26.30;99.90;;;;;;5096369;28;20672;-44
2023/07/11 11:04:41;;;;;;;38.13;36.10;;;26.30;99.90;;;;;;5096354;28;20156;-44
2023/07/11 11:07:29;;;;;;;24.10;22.88;;;26.20;99.90;;;;;;5079666;28;20764;-47
2023/07/11 11:10:07;;;;;;;34.45;32.22;;;26.30;99.90;;;;;;5079532;28;20176;-44
2023/07/11 11:12:54;;;;;;;36.30;34.22;;;26.30;99.90;;;;;;5079502;28;20263;-44
2023/07/11 11:15:31;;;;;;;30.83;29.17;;;26.30;99.90;;;;;;5090682;28;20452;-46
2023/07/11 11:18:18;;;;;;;34.03;32.15;;;26.40;99.90;;;;;;5089756;28;20561;-44
2023/07/11 11:20:46;;;;;;;34.15;32.35;;;26.40;99.90;;;;;;5075145;28;20759;-44
2023/07/11 11:23:21;;;;;;;37.85;35.90;;;26.50;99.90;;;;;;5075037;28;20737;-46
2023/07/11 11:26:24;;;;;;;29.00;27.45;;;26.50;99.90;;;;;;5074712;28;20198;-45
2023/07/11 11:28:53;;;;;;;26.40;25.00;;;26.60;99.90;;;;;;5071771;28;20259;-44
2023/07/11 11:31:25;;;;;;;29.27;27.67;;;26.70;99.90;;;;;;5070734;28;20164;-44
2023/07/11 11:34:09;;;;;;;25.75;24.15;;;26.70;99.90;;;;;;5072559;28;20202;-46
2023/07/11 11:36:45;;;;;;;26.20;24.83;;;26.70;99.90;;;;;;5072681;28;20208;-44
2023/07/11 11:39:36;;;;;;;26.73;24.92;;;26.80;99.90;;;;;;5073058;28;20267;-44
2023/07/11 11:42:06;;;;;;;25.13;23.63;;;26.80;99.90;;;;;;5074066;28;20149;-48
2023/07/11 11:44:45;;;;;;;39.92;37.78;;;26.90;99.90;;;;;;5073870;28;20248;-45
2023/07/11 11:47:13;;;;;;;41.20;39.00;;;27.10;99.90;;;;;;5074441;28;20541;-43
2023/07/11 11:49:39;;;;;;;31.48;29.73;;;27.50;99.90;;;;;;5074669;28;20175;-45
2023/07/11 11:52:06;;;;;;;26.95;25.45;;;27.90;99.90;;;;;;5074113;28;20203;-44
2023/07/11 11:54:41;;;;;;;25.85;24.42;;;28.30;99.90;;;;;;5075136;28;20272;-47
2023/07/11 11:57:22;;;;;;;20.92;19.65;;;28.80;99.90;;;;;;5059357;28;20306;-44
2023/07/11 11:59:48;;;;;;;26.73;24.92;;;29.30;99.90;;;;;;5062168;28;20176;-46
2023/07/11 12:02:34;;;;;;;49.75;46.85;;;29.60;99.90;;;;;;5076217;28;20804;-44
2023/07/11 12:05:04;;;;;;;41.60;39.25;;;29.90;99.90;;;;;;5077164;28;20172;-48
2023/07/11 12:07:33;;;;;;;53.22;50.28;;;30.10;99.90;;;;;;5077412;28;20657;-43
2023/07/11 12:10:12;;;;;;;38.38;36.22;;;30.30;99.90;;;;;;5075649;28;20175;-45
2023/07/11 12:12:37;;;;;;;43.60;41.22;;;30.20;99.90;;;;;;5074572;28;20692;-45
2023/07/11 12:15:23;;;;;;;56.92;54.05;;;30.20;99.90;;;;;;5075474;28;20888;-45
2023/07/11 12:17:49;;;;;;;54.20;51.50;;;30.40;99.90;;;;;;5075136;28;20180;-44
2023/07/11 12:20:24;;;;;;;53.97;51.03;;;30.60;99.90;;;;;;5074373;28;20537;-45
2023/07/11 12:22:50;;;;;;;49.47;46.78;;;30.30;99.90;;;;;;5073940;28;20540;-45
2023/07/11 12:25:22;;;;;;;55.60;52.60;;;30.40;99.90;;;;;;5074691;28;20225;-45
2023/07/11 12:27:58;;;;;;;53.15;50.35;;;30.30;99.90;;;;;;5072817;28;20654;-44
2023/07/11 12:30:27;;;;;;;50.30;47.65;;;30.10;99.90;;;;;;5055763;28;20228;-45
2023/07/11 12:33:13;;;;;;;57.53;54.55;;;30.10;99.90;;;;;;5070395;28;20161;-48
2023/07/11 12:35:40;;;;;;;47.05;44.53;;;30.10;99.90;;;;;;5036701;28;20208;-45
2023/07/11 12:38:19;;;;;;;53.45;50.50;;;30.50;99.90;;;;;;5069892;28;20168;-45
2023/07/11 12:41:15;;;;;;;53.08;50.45;;;30.50;99.90;;;;;;5071629;28;20174;-49
2023/07/11 12:43:45;;;;;;;53.08;50.35;;;30.60;99.90;;;;;;5055074;28;20169;-45
2023/07/11 12:46:34;;;;;;;55.17;52.35;;;30.70;99.90;;;;;;5056296;28;20179;-45
2023/07/11 12:49:10;;;;;;;50.20;47.47;;;30.80;99.80;;;;;;5058603;28;20168;-45